Georgetown, DE

10:52 PM EDT on September 02, 2014 (GMT -0400)
Sussex County | Change Station
CLOSE
Current Station
Airport
Location: Georgetown,
Elevation: 52 ft
Nearby Weather Stations
Active Advisory: Special Statement

Elev 52 ft 38.69 °N, 75.36 °W | Updated 58 minutes ago

Partly Cloudy
Partly Cloudy
81 °F
Feels Like 85 °F
N
9
Wind Variable Wind from South

Today
High -- | Low -- °F
--% Chance of Precip.
Yesterday
High -- | Low -- °F
Precip. -- in
6:31 AM 7:30 PM
First Quarter, 57% visible
Pressure 29.89 in
Visibility 10.0 miles
Clouds Few 8000 ft
Heat Index 85 °F
Dew Point 72 °F
Humidity 74%
Rainfall 0.00 in
Snow Depth Not available.
UV 0 out of 12
Pollen 9.30 out of 12
Air Quality Not available.
Flu Activity Not available.
METAR KGED 030154Z AUTO 17008KT 10SM FEW080 27/22 A2989 RMK AO2 LTG DSNT W SLP122 T02720222

More Conditions Fewer Conditions

Pressure 29.89 in
Visibility 10.0 miles
Clouds Few 8000 ft
Heat Index 85 °F
Dew Point 72 °F
Humidity 74%
Rainfall 0.00 in
Snow Depth Not available.
UV 0 out of 12
Pollen 9.30 out of 12
Air Quality Not available.
Flu Activity Not available.
METAR KGED 030154Z AUTO 17008KT 10SM FEW080 27/22 A2989 RMK AO2 LTG DSNT W SLP122 T02720222

More Conditions Fewer Conditions

10-Day Weather Forecast

Almanac

Astronomy

Sep. 02, 2014 Rise Set
Actual Time 6:31 AM EDT 7:30 PM EDT
Civil Twilight 6:04 AM EDT 7:57 PM EDT
Nautical Twilight 5:32 AM EDT 8:29 PM EDT
Astronomical Twilight 4:58 AM EDT 9:02 PM EDT
Moon 2:08 PM EDT (9/2) No Moon Set
Length of Visible Light 13h 52m
Length of Day
12h 58m
Tomorrow will be 2m 25s shorter.
First Quarter, 57% of the Moon is Illuminated
Today
First Quarter
Sep 8
Full
Sep 15
Last Quarter
Sep 24
New
Oct 1
First Quarter

Today's Extremes

State Highs State Lows

Community

WunderPhotos

Upload Photos

1,749,845 photos uploaded!

Nearby

Snow Depth

Station Depth Elevation
No new snow has been reported.

Earthquake Activity

City Distance Mag. Time & Date
No recent earthquake activity has been reported nearby.
Minimum magnitude displayed is 2.5.

Coastal Water Temperatures

Place Temperature
Ocean City Inlet, MD 78.1 °F
Lewes, DE 78.1 °F
Cape May, NJ 81.0 °F

Nearby Weather Stations